sensor_id;sensor_type;location;lat;lon;timestamp;temperature;humidity
2112;DHT22;1062;52.538;13.400;2023-05-14T00:00:15;13.40;99.90
2112;DHT22;1062;52.538;13.400;2023-05-14T00:02:40;13.40;99.90
2112;DHT22;1062;52.538;13.400;2023-05-14T00:05:07;13.30;99.90
2112;DHT22;1062;52.538;13.400;2023-05-14T00:07:32;13.30;99.90
2112;DHT22;1062;52.538;13.400;2023-05-14T00:09:58;13.20;99.90
2112;DHT22;1062;52.538;13.400;2023-05-14T00:12:25;13.20;99.90
2112;DHT22;1062;52.538;13.400;2023-05-14T00:14:51;13.20;99.90
2112;DHT22;1062;52.538;13.400;2023-05-14T00:17:18;13.20;99.90
2112;DHT22;1062;52.538;13.400;2023-05-14T00:19:44;13.20;99.90
2112;DHT22;1062;52.538;13.400;2023-05-14T00:22:10;13.10;99.90
2112;DHT22;1062;52.538;13.400;2023-05-14T00:24:36;13.10;99.90
2112;DHT22;1062;52.538;13.400;2023-05-14T00:27:03;13.20;99.90
2112;DHT22;1062;52.538;13.400;2023-05-14T00:29:29;13.20;99.90
2112;DHT22;1062;52.538;13.400;2023-05-14T00:31:55;13.20;99.90
2112;DHT22;1062;52.538;13.400;2023-05-14T00:34:21;13.10;99.90
2112;DHT22;1062;52.538;13.400;2023-05-14T00:36:47;13.10;99.90
2112;DHT22;1062;52.538;13.400;2023-05-14T00:39:13;13.10;99.90
2112;DHT22;1062;52.538;13.400;2023-05-14T00:41:38;13.10;99.90
2112;DHT22;1062;52.538;13.400;2023-05-14T00:44:04;13.10;99.90
2112;DHT22;1062;52.538;13.400;2023-05-14T00:46:30;13.10;99.90
2112;DHT22;1062;52.538;13.400;2023-05-14T00:48:56;13.00;99.90
2112;DHT22;1062;52.538;13.400;2023-05-14T00:51:23;13.10;99.90
2112;DHT22;1062;52.538;13.400;2023-05-14T00:53:49;13.10;99.90
2112;DHT22;1062;52.538;13.400;2023-05-14T00:56:15;13.10;99.90
2112;DHT22;1062;52.538;13.400;2023-05-14T00:58:42;13.10;99.90
2112;DHT22;1062;52.538;13.400;2023-05-14T01:01:08;13.00;99.90
2112;DHT22;1062;52.538;13.400;2023-05-14T01:03:33;13.00;99.90
2112;DHT22;1062;52.538;13.400;2023-05-14T01:11:42;12.80;99.90
2112;DHT22;1062;52.538;13.400;2023-05-14T01:14:28;12.80;99.90
2112;DHT22;1062;52.538;13.400;2023-05-14T01:16:58;12.80;99.90
2112;DHT22;1062;52.538;13.400;2023-05-14T01:19:40;12.70;99.90
2112;DHT22;1062;52.538;13.400;2023-05-14T01:22:06;12.70;99.90
2112;DHT22;1062;52.538;13.400;2023-05-14T01:24:32;12.60;99.90
2112;DHT22;1062;52.538;13.400;2023-05-14T01:29:31;12.50;99.90
2112;DHT22;1062;52.538;13.400;2023-05-14T01:31:59;12.60;99.90
2112;DHT22;1062;52.538;13.400;2023-05-14T01:34:27;12.60;99.90
2112;DHT22;1062;52.538;13.400;2023-05-14T01:36:55;12.50;99.90
2112;DHT22;1062;52.538;13.400;2023-05-14T01:39:24;12.50;99.90
2112;DHT22;1062;52.538;13.400;2023-05-14T01:41:50;12.50;99.90
2112;DHT22;1062;52.538;13.400;2023-05-14T01:44:16;12.40;99.90
2112;DHT22;1062;52.538;13.400;2023-05-14T01:46:42;12.40;99.90
2112;DHT22;1062;52.538;13.400;2023-05-14T01:49:08;12.40;99.90
2112;DHT22;1062;52.538;13.400;2023-05-14T01:51:34;12.40;99.90
2112;DHT22;1062;52.538;13.400;2023-05-14T01:53:59;12.30;99.90
2112;DHT22;1062;52.538;13.400;2023-05-14T01:56:25;12.30;99.90
2112;DHT22;1062;52.538;13.400;2023-05-14T01:58:51;12.30;99.90
2112;DHT22;1062;52.538;13.400;2023-05-14T02:01:17;12.30;99.90
2112;DHT22;1062;52.538;13.400;2023-05-14T02:03:42;12.40;99.90
2112;DHT22;1062;52.538;13.400;2023-05-14T02:06:08;12.30;99.90
2112;DHT22;1062;52.538;13.400;2023-05-14T02:08:33;12.40;99.90
2112;DHT22;1062;52.538;13.400;2023-05-14T02:10:59;12.50;99.90
2112;DHT22;1062;52.538;13.400;2023-05-14T02:13:24;12.50;99.90
2112;DHT22;1062;52.538;13.400;2023-05-14T02:15:51;12.50;99.90
2112;DHT22;1062;52.538;13.400;2023-05-14T02:18:16;12.50;99.90
2112;DHT22;1062;52.538;13.400;2023-05-14T02:20:42;12.60;99.90
2112;DHT22;1062;52.538;13.400;2023-05-14T02:23:08;12.60;99.90
2112;DHT22;1062;52.538;13.400;2023-05-14T02:25:33;12.60;99.90
2112;DHT22;1062;52.538;13.400;2023-05-14T02:27:59;12.70;99.90
2112;DHT22;1062;52.538;13.400;2023-05-14T02:30:25;12.70;99.90
2112;DHT22;1062;52.538;13.400;2023-05-14T02:32:50;12.70;99.90
2112;DHT22;1062;52.538;13.400;2023-05-14T02:35:16;12.80;99.90
2112;DHT22;1062;52.538;13.400;2023-05-14T02:37:41;12.80;99.90
2112;DHT22;1062;52.538;13.400;2023-05-14T02:40:07;12.80;99.90
2112;DHT22;1062;52.538;13.400;2023-05-14T02:42:33;12.90;99.90
2112;DHT22;1062;52.538;13.400;2023-05-14T02:44:59;12.80;99.90
2112;DHT22;1062;52.538;13.400;2023-05-14T02:47:24;12.90;99.90
2112;DHT22;1062;52.538;13.400;2023-05-14T02:49:50;12.90;99.90
2112;DHT22;1062;52.538;13.400;2023-05-14T02:52:15;12.90;99.90
2112;DHT22;1062;52.538;13.400;2023-05-14T02:54:41;12.90;99.90
2112;DHT22;1062;52.538;13.400;2023-05-14T02:57:07;12.90;99.90
2112;DHT22;1062;52.538;13.400;2023-05-14T02:59:33;13.00;99.90
2112;DHT22;1062;52.538;13.400;2023-05-14T03:01:58;12.90;99.90
2112;DHT22;1062;52.538;13.400;2023-05-14T03:04:24;12.90;99.90
2112;DHT22;1062;52.538;13.400;2023-05-14T03:06:49;12.90;99.90
2112;DHT22;1062;52.538;13.400;2023-05-14T03:09:15;13.00;99.90
2112;DHT22;1062;52.538;13.400;2023-05-14T03:11:41;13.00;99.90
2112;DHT22;1062;52.538;13.400;2023-05-14T03:14:06;13.00;99.90
2112;DHT22;1062;52.538;13.400;2023-05-14T03:16:32;13.00;99.90
2112;DHT22;1062;52.538;13.400;2023-05-14T03:18:57;13.00;99.90
2112;DHT22;1062;52.538;13.400;2023-05-14T03:21:23;13.00;99.90
2112;DHT22;1062;52.538;13.400;2023-05-14T03:23:49;13.10;99.90
2112;DHT22;1062;52.538;13.400;2023-05-14T03:26:14;13.10;99.90
2112;DHT22;1062;52.538;13.400;2023-05-14T03:28:40;13.10;99.90
2112;DHT22;1062;52.538;13.400;2023-05-14T03:31:06;13.10;99.90
2112;DHT22;1062;52.538;13.400;2023-05-14T03:33:31;13.10;99.90
2112;DHT22;1062;52.538;13.400;2023-05-14T03:35:57;13.20;99.90
2112;DHT22;1062;52.538;13.400;2023-05-14T03:38:22;13.10;99.90
2112;DHT22;1062;52.538;13.400;2023-05-14T03:40:48;13.20;99.90
2112;DHT22;1062;52.538;13.400;2023-05-14T03:43:13;13.20;99.90
2112;DHT22;1062;52.538;13.400;2023-05-14T03:45:39;13.20;99.90
2112;DHT22;1062;52.538;13.400;2023-05-14T03:48:05;13.20;99.90
2112;DHT22;1062;52.538;13.400;2023-05-14T03:50:30;13.20;99.90
2112;DHT22;1062;52.538;13.400;2023-05-14T03:52:56;13.30;99.90
2112;DHT22;1062;52.538;13.400;2023-05-14T03:55:22;13.40;99.90
2112;DHT22;1062;52.538;13.400;2023-05-14T03:57:48;13.40;99.90
2112;DHT22;1062;52.538;13.400;2023-05-14T04:00:14;13.50;99.90
2112;DHT22;1062;52.538;13.400;2023-05-14T04:02:39;13.50;99.90
2112;DHT22;1062;52.538;13.400;2023-05-14T04:05:05;13.60;99.90
2112;DHT22;1062;52.538;13.400;2023-05-14T04:07:31;13.60;99.90
2112;DHT22;1062;52.538;13.400;2023-05-14T04:09:56;13.60;99.90
2112;DHT22;1062;52.538;13.400;2023-05-14T04:12:22;13.70;99.90
2112;DHT22;1062;52.538;13.400;2023-05-14T04:14:48;13.70;99.90
2112;DHT22;1062;52.538;13.400;2023-05-14T04:17:13;13.80;99.90
2112;DHT22;1062;52.538;13.400;2023-05-14T04:19:39;13.80;99.90
2112;DHT22;1062;52.538;13.400;2023-05-14T04:22:05;13.80;99.90
2112;DHT22;1062;52.538;13.400;2023-05-14T04:24:30;13.90;99.90
2112;DHT22;1062;52.538;13.400;2023-05-14T04:26:56;13.90;99.90
2112;DHT22;1062;52.538;13.400;2023-05-14T04:29:22;13.90;99.90
2112;DHT22;1062;52.538;13.400;2023-05-14T04:31:48;14.00;99.90
2112;DHT22;1062;52.538;13.400;2023-05-14T04:34:14;14.00;99.90
2112;DHT22;1062;52.538;13.400;2023-05-14T04:36:39;14.00;99.90
2112;DHT22;1062;52.538;13.400;2023-05-14T04:39:05;14.00;99.90
2112;DHT22;1062;52.538;13.400;2023-05-14T04:41:31;14.00;99.90
2112;DHT22;1062;52.538;13.400;2023-05-14T04:43:59;14.00;99.90
2112;DHT22;1062;52.538;13.400;2023-05-14T04:46:25;13.90;99.90
2112;DHT22;1062;52.538;13.400;2023-05-14T04:48:50;14.00;99.90
2112;DHT22;1062;52.538;13.400;2023-05-14T04:51:16;14.10;99.90
2112;DHT22;1062;52.538;13.400;2023-05-14T04:53:42;14.20;99.90
2112;DHT22;1062;52.538;13.400;2023-05-14T04:56:07;14.40;99.90
2112;DHT22;1062;52.538;13.400;2023-05-14T04:58:33;14.60;99.90
2112;DHT22;1062;52.538;13.400;2023-05-14T05:00:59;14.70;99.90
2112;DHT22;1062;52.538;13.400;2023-05-14T05:03:24;15.00;99.90
2112;DHT22;1062;52.538;13.400;2023-05-14T05:05:50;15.50;99.90
2112;DHT22;1062;52.538;13.400;2023-05-14T05:08:16;15.90;99.90
2112;DHT22;1062;52.538;13.400;2023-05-14T05:10:41;16.40;99.00
2112;DHT22;1062;52.538;13.400;2023-05-14T05:13:07;16.80;98.20
2112;DHT22;1062;52.538;13.400;2023-05-14T05:15:32;17.50;98.30
2112;DHT22;1062;52.538;13.400;2023-05-14T05:17:59;17.80;96.40
2112;DHT22;1062;52.538;13.400;2023-05-14T05:20:25;17.70;95.10
2112;DHT22;1062;52.538;13.400;2023-05-14T05:22:52;17.30;95.00
2112;DHT22;1062;52.538;13.400;2023-05-14T05:25:18;17.10;95.20
2112;DHT22;1062;52.538;13.400;2023-05-14T05:27:43;16.90;94.80
2112;DHT22;1062;52.538;13.400;2023-05-14T05:30:10;16.60;94.60
2112;DHT22;1062;52.538;13.400;2023-05-14T05:32:36;16.40;94.80
2112;DHT22;1062;52.538;13.400;2023-05-14T05:35:02;16.60;94.90
2112;DHT22;1062;52.538;13.400;2023-05-14T05:37:28;16.80;94.80
2112;DHT22;1062;52.538;13.400;2023-05-14T05:39:54;17.30;94.50
2112;DHT22;1062;52.538;13.400;2023-05-14T05:42:19;17.20;93.60
2112;DHT22;1062;52.538;13.400;2023-05-14T05:44:45;17.20;93.60
2112;DHT22;1062;52.538;13.400;2023-05-14T05:47:11;17.20;93.90
2112;DHT22;1062;52.538;13.400;2023-05-14T05:49:36;17.10;93.20
2112;DHT22;1062;52.538;13.400;2023-05-14T05:52:02;16.90;93.90
2112;DHT22;1062;52.538;13.400;2023-05-14T05:54:29;17.10;93.70
2112;DHT22;1062;52.538;13.400;2023-05-14T05:56:56;17.40;93.30
2112;DHT22;1062;52.538;13.400;2023-05-14T05:59:23;17.60;92.80
2112;DHT22;1062;52.538;13.400;2023-05-14T06:01:48;17.70;92.00
2112;DHT22;1062;52.538;13.400;2023-05-14T06:04:14;17.60;92.10
2112;DHT22;1062;52.538;13.400;2023-05-14T06:06:40;17.80;91.80
2112;DHT22;1062;52.538;13.400;2023-05-14T06:09:05;18.00;91.60
2112;DHT22;1062;52.538;13.400;2023-05-14T06:11:31;18.20;91.40
2112;DHT22;1062;52.538;13.400;2023-05-14T06:13:57;18.40;91.10
2112;DHT22;1062;52.538;13.400;2023-05-14T06:16:22;18.40;90.50
2112;DHT22;1062;52.538;13.400;2023-05-14T06:18:48;18.20;90.60
2112;DHT22;1062;52.538;13.400;2023-05-14T06:21:14;18.40;90.50
2112;DHT22;1062;52.538;13.400;2023-05-14T06:23:39;18.50;90.20
2112;DHT22;1062;52.538;13.400;2023-05-14T06:26:06;18.50;90.30
2112;DHT22;1062;52.538;13.400;2023-05-14T06:28:31;18.40;90.40
2112;DHT22;1062;52.538;13.400;2023-05-14T06:30:57;18.30;90.10
2112;DHT22;1062;52.538;13.400;2023-05-14T06:33:22;18.20;90.30
2112;DHT22;1062;52.538;13.400;2023-05-14T06:35:58;18.10;90.70
2112;DHT22;1062;52.538;13.400;2023-05-14T06:38:24;17.90;91.10
2112;DHT22;1062;52.538;13.400;2023-05-14T06:40:50;18.00;91.10
2112;DHT22;1062;52.538;13.400;2023-05-14T06:43:17;17.90;90.90
2112;DHT22;1062;52.538;13.400;2023-05-14T06:45:43;17.90;90.80
2112;DHT22;1062;52.538;13.400;2023-05-14T06:48:08;18.10;90.90
2112;DHT22;1062;52.538;13.400;2023-05-14T06:50:34;18.10;90.30
2112;DHT22;1062;52.538;13.400;2023-05-14T06:53:00;18.10;90.70
2112;DHT22;1062;52.538;13.400;2023-05-14T06:55:25;18.00;90.20
2112;DHT22;1062;52.538;13.400;2023-05-14T06:57:51;18.00;90.70
2112;DHT22;1062;52.538;13.400;2023-05-14T07:00:17;17.90;90.50
2112;DHT22;1062;52.538;13.400;2023-05-14T07:02:43;17.80;90.90
2112;DHT22;1062;52.538;13.400;2023-05-14T07:05:09;17.80;90.80
2112;DHT22;1062;52.538;13.400;2023-05-14T07:07:35;17.70;90.90
2112;DHT22;1062;52.538;13.400;2023-05-14T07:10:01;17.80;91.20
2112;DHT22;1062;52.538;13.400;2023-05-14T07:12:26;17.80;91.10
2112;DHT22;1062;52.538;13.400;2023-05-14T07:14:52;17.80;91.20
2112;DHT22;1062;52.538;13.400;2023-05-14T07:17:18;17.80;91.40
2112;DHT22;1062;52.538;13.400;2023-05-14T07:19:43;17.80;91.80
2112;DHT22;1062;52.538;13.400;2023-05-14T07:22:09;18.00;91.10
2112;DHT22;1062;52.538;13.400;2023-05-14T07:24:34;17.90;91.00
2112;DHT22;1062;52.538;13.400;2023-05-14T07:27:00;17.90;91.00
2112;DHT22;1062;52.538;13.400;2023-05-14T07:29:26;17.80;91.30
2112;DHT22;1062;52.538;13.400;2023-05-14T07:31:52;17.90;91.30
2112;DHT22;1062;52.538;13.400;2023-05-14T07:34:18;17.90;91.20
2112;DHT22;1062;52.538;13.400;2023-05-14T07:36:43;18.20;91.30
2112;DHT22;1062;52.538;13.400;2023-05-14T07:39:09;18.30;90.90
2112;DHT22;1062;52.538;13.400;2023-05-14T07:41:35;18.40;90.80
2112;DHT22;1062;52.538;13.400;2023-05-14T07:44:00;18.70;90.60
2112;DHT22;1062;52.538;13.400;2023-05-14T07:46:26;19.10;90.00
2112;DHT22;1062;52.538;13.400;2023-05-14T07:48:52;19.10;89.50
2112;DHT22;1062;52.538;13.400;2023-05-14T07:51:17;19.60;87.70
2112;DHT22;1062;52.538;13.400;2023-05-14T07:53:43;19.60;87.50
2112;DHT22;1062;52.538;13.400;2023-05-14T07:56:08;19.80;88.20
2112;DHT22;1062;52.538;13.400;2023-05-14T07:58:34;20.20;85.60
2112;DHT22;1062;52.538;13.400;2023-05-14T08:01:00;20.20;84.70
2112;DHT22;1062;52.538;13.400;2023-05-14T08:03:28;20.70;84.40
2112;DHT22;1062;52.538;13.400;2023-05-14T08:05:53;20.80;82.30
2112;DHT22;1062;52.538;13.400;2023-05-14T08:08:19;20.70;83.40
2112;DHT22;1062;52.538;13.400;2023-05-14T08:10:44;21.10;81.50
2112;DHT22;1062;52.538;13.400;2023-05-14T08:13:10;21.10;82.30
2112;DHT22;1062;52.538;13.400;2023-05-14T08:15:36;21.20;81.60
2112;DHT22;1062;52.538;13.400;2023-05-14T08:18:01;21.10;80.70
2112;DHT22;1062;52.538;13.400;2023-05-14T08:20:31;21.20;80.60
2112;DHT22;1062;52.538;13.400;2023-05-14T08:22:56;21.10;80.10
2112;DHT22;1062;52.538;13.400;2023-05-14T08:25:22;21.00;80.20
2112;DHT22;1062;52.538;13.400;2023-05-14T08:27:49;20.90;80.70
2112;DHT22;1062;52.538;13.400;2023-05-14T08:30:15;21.40;80.60
2112;DHT22;1062;52.538;13.400;2023-05-14T08:32:40;21.70;78.70
2112;DHT22;1062;52.538;13.400;2023-05-14T08:35:07;21.40;77.90
2112;DHT22;1062;52.538;13.400;2023-05-14T08:37:33;21.10;78.20
2112;DHT22;1062;52.538;13.400;2023-05-14T08:39:58;21.20;77.80
2112;DHT22;1062;52.538;13.400;2023-05-14T08:42:24;21.20;78.30
2112;DHT22;1062;52.538;13.400;2023-05-14T08:45:01;21.50;78.40
2112;DHT22;1062;52.538;13.400;2023-05-14T08:47:29;21.70;78.00
2112;DHT22;1062;52.538;13.400;2023-05-14T08:50:05;21.80;76.30
2112;DHT22;1062;52.538;13.400;2023-05-14T08:52:32;22.40;75.60
2112;DHT22;1062;52.538;13.400;2023-05-14T08:55:03;22.50;73.70
2112;DHT22;1062;52.538;13.400;2023-05-14T08:57:30;22.40;73.40
2112;DHT22;1062;52.538;13.400;2023-05-14T08:59:56;22.20;73.80
2112;DHT22;1062;52.538;13.400;2023-05-14T09:02:27;22.60;73.90
2112;DHT22;1062;52.538;13.400;2023-05-14T09:04:55;23.00;72.70
2112;DHT22;1062;52.538;13.400;2023-05-14T09:07:21;22.80;73.10
2112;DHT22;1062;52.538;13.400;2023-05-14T09:09:48;23.20;71.90
2112;DHT22;1062;52.538;13.400;2023-05-14T09:12:14;23.20;72.50
2112;DHT22;1062;52.538;13.400;2023-05-14T09:14:40;23.90;69.50
2112;DHT22;1062;52.538;13.400;2023-05-14T09:17:06;23.40;67.70
2112;DHT22;1062;52.538;13.400;2023-05-14T09:19:32;23.40;68.50
2112;DHT22;1062;52.538;13.400;2023-05-14T09:21:58;23.20;67.40
2112;DHT22;1062;52.538;13.400;2023-05-14T09:24:27;23.10;68.20
2112;DHT22;1062;52.538;13.400;2023-05-14T09:26:57;23.30;69.90
2112;DHT22;1062;52.538;13.400;2023-05-14T09:29:24;23.50;66.50
2112;DHT22;1062;52.538;13.400;2023-05-14T09:31:51;23.80;63.10
2112;DHT22;1062;52.538;13.400;2023-05-14T09:34:27;24.00;64.30
2112;DHT22;1062;52.538;13.400;2023-05-14T09:37:01;24.20;63.80
2112;DHT22;1062;52.538;13.400;2023-05-14T09:39:28;25.00;65.00
2112;DHT22;1062;52.538;13.400;2023-05-14T09:41:54;25.00;60.70
2112;DHT22;1062;52.538;13.400;2023-05-14T09:44:21;24.80;60.40
2112;DHT22;1062;52.538;13.400;2023-05-14T09:46:47;24.40;59.80
2112;DHT22;1062;52.538;13.400;2023-05-14T09:49:13;23.90;60.00
2112;DHT22;1062;52.538;13.400;2023-05-14T09:51:39;23.90;61.30
2112;DHT22;1062;52.538;13.400;2023-05-14T09:54:05;24.30;60.50
2112;DHT22;1062;52.538;13.400;2023-05-14T09:56:34;24.40;59.70
2112;DHT22;1062;52.538;13.400;2023-05-14T09:59:01;23.70;61.50
2112;DHT22;1062;52.538;13.400;2023-05-14T10:01:28;23.20;62.20
2112;DHT22;1062;52.538;13.400;2023-05-14T10:03:54;23.20;63.60
2112;DHT22;1062;52.538;13.400;2023-05-14T10:06:24;22.90;62.10
2112;DHT22;1062;52.538;13.400;2023-05-14T10:08:54;22.30;63.40
2112;DHT22;1062;52.538;13.400;2023-05-14T10:11:24;22.40;64.10
2112;DHT22;1062;52.538;13.400;2023-05-14T10:14:12;22.00;65.40
2112;DHT22;1062;52.538;13.400;2023-05-14T10:16:52;22.10;66.40
2112;DHT22;1062;52.538;13.400;2023-05-14T10:19:19;21.90;67.40
2112;DHT22;1062;52.538;13.400;2023-05-14T10:21:59;22.30;68.40
2112;DHT22;1062;52.538;13.400;2023-05-14T10:24:28;22.20;68.00
2112;DHT22;1062;52.538;13.400;2023-05-14T10:26:55;21.50;68.70
2112;DHT22;1062;52.538;13.400;2023-05-14T10:29:31;21.30;68.90
2112;DHT22;1062;52.538;13.400;2023-05-14T10:31:57;21.30;69.70
2112;DHT22;1062;52.538;13.400;2023-05-14T10:34:40;21.40;69.10
2112;DHT22;1062;52.538;13.400;2023-05-14T10:37:11;21.40;68.10
2112;DHT22;1062;52.538;13.400;2023-05-14T10:40:03;21.70;68.50
2112;DHT22;1062;52.538;13.400;2023-05-14T10:42:34;21.70;68.60
2112;DHT22;1062;52.538;13.400;2023-05-14T10:45:04;21.70;67.10
2112;DHT22;1062;52.538;13.400;2023-05-14T10:47:32;21.50;68.10
2112;DHT22;1062;52.538;13.400;2023-05-14T10:50:01;21.60;68.50
2112;DHT22;1062;52.538;13.400;2023-05-14T10:52:28;21.50;68.20
2112;DHT22;1062;52.538;13.400;2023-05-14T10:54:56;21.30;67.30
2112;DHT22;1062;52.538;13.400;2023-05-14T10:57:23;21.30;66.30
2112;DHT22;1062;52.538;13.400;2023-05-14T10:59:55;21.20;66.10
2112;DHT22;1062;52.538;13.400;2023-05-14T11:02:26;21.40;65.40
2112;DHT22;1062;52.538;13.400;2023-05-14T11:05:00;21.00;66.90
2112;DHT22;1062;52.538;13.400;2023-05-14T11:07:34;20.80;67.20
2112;DHT22;1062;52.538;13.400;2023-05-14T11:10:20;20.60;68.00
2112;DHT22;1062;52.538;13.400;2023-05-14T11:12:50;20.50;69.10
2112;DHT22;1062;52.538;13.400;2023-05-14T11:15:20;20.40;69.00
2112;DHT22;1062;52.538;13.400;2023-05-14T11:17:47;20.30;68.70
2112;DHT22;1062;52.538;13.400;2023-05-14T11:20:14;20.20;68.90
2112;DHT22;1062;52.538;13.400;2023-05-14T11:22:41;20.30;68.80
2112;DHT22;1062;52.538;13.400;2023-05-14T11:25:08;20.30;69.50
2112;DHT22;1062;52.538;13.400;2023-05-14T11:27:35;20.40;68.90
2112;DHT22;1062;52.538;13.400;2023-05-14T11:30:02;20.40;69.20
2112;DHT22;1062;52.538;13.400;2023-05-14T11:32:28;20.50;68.70
2112;DHT22;1062;52.538;13.400;2023-05-14T11:34:55;20.60;68.90
2112;DHT22;1062;52.538;13.400;2023-05-14T11:37:21;20.90;69.00
2112;DHT22;1062;52.538;13.400;2023-05-14T11:39:52;21.20;68.90
2112;DHT22;1062;52.538;13.400;2023-05-14T11:42:18;21.20;68.10
2112;DHT22;1062;52.538;13.400;2023-05-14T11:44:48;21.20;69.20
2112;DHT22;1062;52.538;13.400;2023-05-14T11:47:15;21.00;69.30
2112;DHT22;1062;52.538;13.400;2023-05-14T11:49:41;21.10;69.70
2112;DHT22;1062;52.538;13.400;2023-05-14T11:52:08;20.90;69.60
2112;DHT22;1062;52.538;13.400;2023-05-14T11:54:36;20.80;69.90
2112;DHT22;1062;52.538;13.400;2023-05-14T11:57:13;20.90;70.30
2112;DHT22;1062;52.538;13.400;2023-05-14T11:59:39;21.00;70.50
2112;DHT22;1062;52.538;13.400;2023-05-14T12:02:09;20.90;70.70
2112;DHT22;1062;52.538;13.400;2023-05-14T12:04:36;20.80;71.00
2112;DHT22;1062;52.538;13.400;2023-05-14T12:07:09;20.70;72.20
2112;DHT22;1062;52.538;13.400;2023-05-14T12:09:37;20.60;71.10
2112;DHT22;1062;52.538;13.400;2023-05-14T12:12:09;20.70;71.40
2112;DHT22;1062;52.538;13.400;2023-05-14T12:14:40;20.60;70.50
2112;DHT22;1062;52.538;13.400;2023-05-14T12:17:20;20.60;70.70
2112;DHT22;1062;52.538;13.400;2023-05-14T12:19:51;20.80;71.50
2112;DHT22;1062;52.538;13.400;2023-05-14T12:22:21;20.80;71.30
2112;DHT22;1062;52.538;13.400;2023-05-14T12:24:58;21.00;71.10
2112;DHT22;1062;52.538;13.400;2023-05-14T12:27:26;21.20;72.10
2112;DHT22;1062;52.538;13.400;2023-05-14T12:29:59;21.50;70.90
2112;DHT22;1062;52.538;13.400;2023-05-14T12:32:26;21.60;72.20
2112;DHT22;1062;52.538;13.400;2023-05-14T12:34:52;21.60;71.00
2112;DHT22;1062;52.538;13.400;2023-05-14T12:37:18;21.60;70.50
2112;DHT22;1062;52.538;13.400;2023-05-14T12:39:43;21.60;68.30
2112;DHT22;1062;52.538;13.400;2023-05-14T12:42:09;21.80;69.70
2112;DHT22;1062;52.538;13.400;2023-05-14T12:44:34;21.90;68.70
2112;DHT22;1062;52.538;13.400;2023-05-14T12:47:00;21.70;68.10
2112;DHT22;1062;52.538;13.400;2023-05-14T12:49:26;21.70;68.10
2112;DHT22;1062;52.538;13.400;2023-05-14T12:51:52;21.70;66.40
2112;DHT22;1062;52.538;13.400;2023-05-14T12:54:17;21.50;64.90
2112;DHT22;1062;52.538;13.400;2023-05-14T12:56:43;21.40;64.90
2112;DHT22;1062;52.538;13.400;2023-05-14T12:59:08;21.50;65.80
2112;DHT22;1062;52.538;13.400;2023-05-14T13:01:35;21.40;64.00
2112;DHT22;1062;52.538;13.400;2023-05-14T13:04:02;21.40;64.00
2112;DHT22;1062;52.538;13.400;2023-05-14T13:06:28;21.60;63.20
2112;DHT22;1062;52.538;13.400;2023-05-14T13:08:54;21.60;63.60
2112;DHT22;1062;52.538;13.400;2023-05-14T13:11:21;21.50;63.60
2112;DHT22;1062;52.538;13.400;2023-05-14T13:13:47;21.50;64.60
2112;DHT22;1062;52.538;13.400;2023-05-14T13:16:12;21.30;63.70
2112;DHT22;1062;52.538;13.400;2023-05-14T13:18:41;21.30;65.50
2112;DHT22;1062;52.538;13.400;2023-05-14T13:21:06;20.90;63.70
2112;DHT22;1062;52.538;13.400;2023-05-14T13:23:32;20.90;64.00
2112;DHT22;1062;52.538;13.400;2023-05-14T13:25:58;21.00;63.90
2112;DHT22;1062;52.538;13.400;2023-05-14T13:28:23;20.90;64.60
2112;DHT22;1062;52.538;13.400;2023-05-14T13:31:09;20.80;63.80
2112;DHT22;1062;52.538;13.400;2023-05-14T13:33:36;20.80;63.90
2112;DHT22;1062;52.538;13.400;2023-05-14T13:36:03;20.80;64.30
2112;DHT22;1062;52.538;13.400;2023-05-14T13:38:30;20.90;64.50
2112;DHT22;1062;52.538;13.400;2023-05-14T13:40:56;21.00;64.70
2112;DHT22;1062;52.538;13.400;2023-05-14T13:43:26;21.00;64.20
2112;DHT22;1062;52.538;13.400;2023-05-14T13:45:52;21.20;64.30
2112;DHT22;1062;52.538;13.400;2023-05-14T13:48:17;21.20;65.10
2112;DHT22;1062;52.538;13.400;2023-05-14T13:50:43;21.20;65.00
2112;DHT22;1062;52.538;13.400;2023-05-14T13:53:08;21.40;63.90
2112;DHT22;1062;52.538;13.400;2023-05-14T13:55:34;21.30;63.40
2112;DHT22;1062;52.538;13.400;2023-05-14T13:58:01;21.30;63.20
2112;DHT22;1062;52.538;13.400;2023-05-14T14:00:26;21.40;62.70
2112;DHT22;1062;52.538;13.400;2023-05-14T14:02:52;21.50;62.10
2112;DHT22;1062;52.538;13.400;2023-05-14T14:05:18;21.40;63.30
2112;DHT22;1062;52.538;13.400;2023-05-14T14:07:43;21.60;63.10
2112;DHT22;1062;52.538;13.400;2023-05-14T14:10:09;21.60;62.90
2112;DHT22;1062;52.538;13.400;2023-05-14T14:12:35;21.60;63.10
2112;DHT22;1062;52.538;13.400;2023-05-14T14:15:01;21.70;62.80
2112;DHT22;1062;52.538;13.400;2023-05-14T14:17:28;21.70;63.50
2112;DHT22;1062;52.538;13.400;2023-05-14T14:19:53;21.50;63.40
2112;DHT22;1062;52.538;13.400;2023-05-14T14:22:19;21.50;63.20
2112;DHT22;1062;52.538;13.400;2023-05-14T14:24:44;21.50;63.40
2112;DHT22;1062;52.538;13.400;2023-05-14T14:27:10;21.50;64.00
2112;DHT22;1062;52.538;13.400;2023-05-14T14:29:36;21.50;63.70
2112;DHT22;1062;52.538;13.400;2023-05-14T14:32:02;21.50;63.60
2112;DHT22;1062;52.538;13.400;2023-05-14T14:34:28;21.60;63.80
2112;DHT22;1062;52.538;13.400;2023-05-14T14:36:53;21.40;63.50
2112;DHT22;1062;52.538;13.400;2023-05-14T14:39:19;21.30;62.40
2112;DHT22;1062;52.538;13.400;2023-05-14T14:41:45;21.30;62.00
2112;DHT22;1062;52.538;13.400;2023-05-14T14:44:12;21.30;62.40
2112;DHT22;1062;52.538;13.400;2023-05-14T14:46:37;21.30;62.10
2112;DHT22;1062;52.538;13.400;2023-05-14T14:49:03;21.30;61.20
2112;DHT22;1062;52.538;13.400;2023-05-14T14:51:29;21.20;61.30
2112;DHT22;1062;52.538;13.400;2023-05-14T14:53:55;21.10;61.50
2112;DHT22;1062;52.538;13.400;2023-05-14T14:56:21;21.10;61.90
2112;DHT22;1062;52.538;13.400;2023-05-14T14:58:46;21.10;60.60
2112;DHT22;1062;52.538;13.400;2023-05-14T15:01:12;21.10;61.00
2112;DHT22;1062;52.538;13.400;2023-05-14T15:03:38;21.00;61.30
2112;DHT22;1062;52.538;13.400;2023-05-14T15:06:03;21.00;61.00
2112;DHT22;1062;52.538;13.400;2023-05-14T15:08:29;21.00;61.40
2112;DHT22;1062;52.538;13.400;2023-05-14T15:10:55;21.00;61.10
2112;DHT22;1062;52.538;13.400;2023-05-14T15:13:21;21.00;61.40
2112;DHT22;1062;52.538;13.400;2023-05-14T15:15:46;20.90;62.10
2112;DHT22;1062;52.538;13.400;2023-05-14T15:18:13;20.90;62.70
2112;DHT22;1062;52.538;13.400;2023-05-14T15:20:38;21.00;62.50
2112;DHT22;1062;52.538;13.400;2023-05-14T15:23:04;20.90;62.90
2112;DHT22;1062;52.538;13.400;2023-05-14T15:25:30;20.90;63.20
2112;DHT22;1062;52.538;13.400;2023-05-14T15:27:56;20.90;64.40
2112;DHT22;1062;52.538;13.400;2023-05-14T15:30:21;20.70;63.50
2112;DHT22;1062;52.538;13.400;2023-05-14T15:32:47;20.70;63.40
2112;DHT22;1062;52.538;13.400;2023-05-14T15:35:13;20.60;63.10
2112;DHT22;1062;52.538;13.400;2023-05-14T15:37:40;20.50;63.20
2112;DHT22;1062;52.538;13.400;2023-05-14T15:40:07;20.50;63.60
2112;DHT22;1062;52.538;13.400;2023-05-14T15:42:38;20.50;63.80
2112;DHT22;1062;52.538;13.400;2023-05-14T15:45:04;20.40;63.80
2112;DHT22;1062;52.538;13.400;2023-05-14T15:47:30;20.50;64.10
2112;DHT22;1062;52.538;13.400;2023-05-14T15:49:55;20.40;63.60